Time;durP1;ratioP1;P1;durP2;ratioP2;P2;SDS_P1;SDS_P2;PMS_P1;PMS_P2;Temp;Humidity;BMP_temperature;BMP_pressure;BME280_temperature;BME280_humidity;BME280_pressure;Samples;Min_cycle;Max_cycle;Signal;HPM_P1;HPM_P2
2023/05/27 00:00:08;;;;;;;;;;;21.10;97.10;21.10;99797.00;;;;349017;27;86773;-96
2023/05/27 00:00:20;;;;;;;;;;;21.10;97.10;21.20;99799.00;;;;350217;27;82574;-95
2023/05/27 00:00:33;;;;;;;;;;;21.10;97.10;21.20;99806.00;;;;348823;27;83901;-96
2023/05/27 00:00:46;;;;;;;;;;;21.10;97.10;21.30;99795.00;;;;348936;27;82473;-95
2023/05/27 00:00:58;;;;;;;;;;;21.10;97.10;21.20;99797.00;;;;350351;27;84243;-96
2023/05/27 00:01:14;;;;;;;;;;;21.10;97.20;21.10;99799.00;;;;348806;27;82993;-95
2023/05/27 00:01:26;;;;;;;;;;;21.10;97.20;21.20;99794.00;;;;351645;27;84381;-96
2023/05/27 00:01:40;;;;;;;;;;;21.10;97.20;21.30;99800.00;;;;350778;27;82352;-96
2023/05/27 00:01:54;;;;;;;;;;;21.10;97.20;21.30;99799.00;;;;350295;27;85290;-96
2023/05/27 00:02:06;;;;;;;;;;;21.10;97.20;21.40;99796.00;;;;350324;27;82386;-96
2023/05/27 00:02:18;;;;;;;;;;;21.10;97.20;21.40;99797.00;;;;348744;28;83801;-94
2023/05/27 00:02:31;;;;;;;;;;;21.10;97.20;21.40;99792.00;;;;350669;27;82424;-96
2023/05/27 00:02:45;;;;;;;;;;;21.10;97.20;21.20;99799.00;;;;351608;27;83323;-96
2023/05/27 00:03:00;;;;;;;;;;;21.10;97.20;21.30;99806.00;;;;350309;27;82263;-96
2023/05/27 00:03:15;;;;;;;;;;;21.10;97.20;21.30;99803.00;;;;350190;27;84966;-96
2023/05/27 00:03:29;;;;;;;;;;;21.10;97.10;21.30;99802.00;;;;350201;27;82507;-96
2023/05/27 00:03:44;;;;;;;;;;;21.10;97.10;21.30;99801.00;;;;347225;28;83027;-96
2023/05/27 00:03:57;;;;;;;;;;;21.10;97.10;21.30;99806.00;;;;350425;27;82511;-96
2023/05/27 00:04:09;;;;;;;;;;;21.10;97.10;21.30;99801.00;;;;347481;28;84828;-96
2023/05/27 00:04:23;;;;;;;;;;;21.10;97.10;21.10;99805.00;;;;349170;27;82542;-96
2023/05/27 00:04:37;;;;;;;;;;;21.10;97.20;21.20;99803.00;;;;348979;27;83271;-95
2023/05/27 00:04:50;;;;;;;;;;;21.10;97.20;21.30;99800.00;;;;346380;28;82682;-95
2023/05/27 00:05:07;;;;;;;;;;;21.10;97.20;21.20;99795.00;;;;347709;28;85385;-96
2023/05/27 00:05:23;;;;;;;;;;;21.10;97.20;21.30;99797.00;;;;347331;28;82608;-96
2023/05/27 00:05:46;;;;;;;;;;;21.10;97.20;21.20;99805.00;;;;345892;28;83227;-96
2023/05/27 00:06:00;;;;;;;;;;;21.10;97.20;21.20;99808.00;;;;350456;27;82660;-96
2023/05/27 00:06:13;;;;;;;;;;;21.10;97.30;21.30;99804.00;;;;347759;28;85581;-96
2023/05/27 00:06:26;;;;;;;;;;;21.10;97.20;21.30;99803.00;;;;348638;27;82509;-95
2023/05/27 00:06:42;;;;;;;;;;;21.10;97.20;21.30;99803.00;;;;347636;28;83052;-96
2023/05/27 00:07:12;;;;;;;;;;;21.10;97.20;21.30;99803.00;;;;345765;28;82489;-96
2023/05/27 00:08:05;;;;;;;;;;;21.10;97.20;21.30;99802.00;;;;352518;27;74889;-95
2023/05/27 00:08:18;;;;;;;;;;;21.10;97.10;21.30;99797.00;;;;350234;27;82500;-96
2023/05/27 00:08:31;;;;;;;;;;;21.10;97.10;21.20;99808.00;;;;349015;27;85285;-96
2023/05/27 00:08:47;;;;;;;;;;;21.10;97.20;21.20;99796.00;;;;344956;28;82553;-95
2023/05/27 00:09:00;;;;;;;;;;;21.10;97.10;21.20;99797.00;;;;348738;27;85096;-95
2023/05/27 00:09:12;;;;;;;;;;;21.10;97.10;21.30;99804.00;;;;349155;27;82467;-95
2023/05/27 00:09:25;;;;;;;;;;;21.10;97.00;21.30;99798.00;;;;344846;28;84118;-96
2023/05/27 00:09:39;;;;;;;;;;;21.10;97.00;21.30;99795.00;;;;347547;28;82532;-96
2023/05/27 00:09:51;;;;;;;;;;;21.10;97.00;21.30;99797.00;;;;347766;28;86606;-96
2023/05/27 00:10:05;;;;;;;;;;;21.20;97.10;21.30;99792.00;;;;347512;28;82680;-96
2023/05/27 00:10:20;;;;;;;;;;;21.10;97.00;21.30;99798.00;;;;350186;27;84964;-96
2023/05/27 00:10:33;;;;;;;;;;;21.10;97.00;21.20;99796.00;;;;347677;28;82596;-96
2023/05/27 00:10:48;;;;;;;;;;;21.20;97.00;21.20;99800.00;;;;348758;27;84169;-96
2023/05/27 00:11:00;;;;;;;;;;;21.10;97.00;21.20;99794.00;;;;349523;27;82507;-95
2023/05/27 00:11:13;;;;;;;;;;;21.20;97.00;21.30;99796.00;;;;346491;28;82866;-95
2023/05/27 00:11:25;;;;;;;;;;;21.20;97.00;21.10;99797.00;;;;347812;28;82599;-96
2023/05/27 00:11:42;;;;;;;;;;;21.10;97.10;21.20;99808.00;;;;345037;28;83095;-95
2023/05/27 00:11:55;;;;;;;;;;;21.10;97.10;21.10;99800.00;;;;345360;28;82556;-96
2023/05/27 00:12:08;;;;;;;;;;;21.10;97.10;21.20;99805.00;;;;349176;27;85472;-96
2023/05/27 00:12:22;;;;;;;;;;;21.10;97.10;21.10;99803.00;;;;349853;27;82283;-96
2023/05/27 00:12:35;;;;;;;;;;;21.10;97.10;21.20;99802.00;;;;347878;28;85135;-96
2023/05/27 00:12:48;;;;;;;;;;;21.10;97.10;21.20;99795.00;;;;346807;28;82458;-96
2023/05/27 00:13:02;;;;;;;;;;;21.10;97.10;21.20;99798.00;;;;349635;27;83121;-96
2023/05/27 00:13:16;;;;;;;;;;;21.10;97.10;21.10;99798.00;;;;348059;28;82427;-96
2023/05/27 00:13:41;;;;;;;;;;;21.10;97.20;21.20;99799.00;;;;344468;28;82652;-96
2023/05/27 00:13:55;;;;;;;;;;;21.10;97.10;21.20;99808.00;;;;349443;27;82782;-96
2023/05/27 00:14:22;;;;;;;;;;;21.10;97.10;21.20;99805.00;;;;346115;28;82932;-96
2023/05/27 00:14:39;;;;;;;;;;;21.10;97.10;21.20;99803.00;;;;347776;28;82601;-95
2023/05/27 00:15:00;;;;;;;;;;;21.10;97.10;21.10;99800.00;;;;348474;28;83096;-95
2023/05/27 00:15:13;;;;;;;;;;;21.10;97.10;21.10;99798.00;;;;346640;28;82349;-96
2023/05/27 00:15:27;;;;;;;;;;;21.10;97.10;21.20;99803.00;;;;346708;28;83105;-96
2023/05/27 00:15:41;;;;;;;;;;;21.10;97.10;21.20;99802.00;;;;345712;28;82264;-96
2023/05/27 00:15:55;;;;;;;;;;;21.10;97.10;21.20;99796.00;;;;346521;28;82840;-96
2023/05/27 00:16:21;;;;;;;;;;;21.10;97.10;21.00;99799.00;;;;348635;27;82500;-96
2023/05/27 00:16:36;;;;;;;;;;;21.10;97.10;21.10;99796.00;;;;347944;27;85150;-96
2023/05/27 00:16:51;;;;;;;;;;;21.00;97.00;21.00;99805.00;;;;344092;28;82404;-96
2023/05/27 00:17:05;;;;;;;;;;;21.00;97.10;21.00;99807.00;;;;349408;27;84845;-96
2023/05/27 00:17:17;;;;;;;;;;;21.00;97.10;21.00;99801.00;;;;347698;28;82640;-96
2023/05/27 00:17:32;;;;;;;;;;;21.00;97.10;21.10;99810.00;;;;347848;28;85519;-96
2023/05/27 00:18:02;;;;;;;;;;;21.00;97.10;21.10;99809.00;;;;345304;28;82523;-96
2023/05/27 00:18:18;;;;;;;;;;;21.00;97.10;21.20;99803.00;;;;344199;28;83138;-96
2023/05/27 00:18:32;;;;;;;;;;;21.00;97.10;21.20;99800.00;;;;347436;28;82298;-95
2023/05/27 00:18:49;;;;;;;;;;;21.00;97.10;21.20;99806.00;;;;349099;27;84841;-96
2023/05/27 00:19:09;;;;;;;;;;;21.00;97.40;21.10;99805.00;;;;345216;28;82714;-96
2023/05/27 00:19:23;;;;;;;;;;;21.00;97.20;21.00;99806.00;;;;350475;27;85371;-96
2023/05/27 00:19:35;;;;;;;;;;;21.00;97.30;21.00;99793.00;;;;349033;28;82519;-95
2023/05/27 00:19:51;;;;;;;;;;;21.00;97.20;21.00;99799.00;;;;349130;27;86068;-95
2023/05/27 00:20:07;;;;;;;;;;;21.00;97.20;20.90;99799.00;;;;349420;27;82459;-95
2023/05/27 00:20:36;;;;;;;;;;;21.00;97.20;20.90;99796.00;;;;347812;28;85002;-95
2023/05/27 00:20:56;;;;;;;;;;;21.00;97.10;21.00;99803.00;;;;346674;28;82614;-95
2023/05/27 00:21:12;;;;;;;;;;;21.00;97.10;21.10;99797.00;;;;346719;28;83038;-96
2023/05/27 00:21:46;;;;;;;;;;;21.00;97.10;21.10;99806.00;;;;345686;28;82421;-95
2023/05/27 00:22:15;;;;;;;;;;;21.00;97.20;21.10;99808.00;;;;346087;28;85471;-96
2023/05/27 00:22:29;;;;;;;;;;;21.00;97.30;20.90;99803.00;;;;349586;27;82491;-96
2023/05/27 00:22:44;;;;;;;;;;;21.00;97.20;21.00;99800.00;;;;346672;28;84908;-96
2023/05/27 00:22:59;;;;;;;;;;;21.00;97.20;21.10;99796.00;;;;346628;28;82547;-96
2023/05/27 00:23:14;;;;;;;;;;;21.00;97.20;21.10;99790.00;;;;346862;28;85410;-96
2023/05/27 00:23:29;;;;;;;;;;;21.00;97.20;21.00;99800.00;;;;347951;28;82540;-96
2023/05/27 00:23:45;;;;;;;;;;;20.90;97.20;21.00;99799.00;;;;347854;28;83117;-96
2023/05/27 00:24:11;;;;;;;;;;;20.90;97.20;21.00;99802.00;;;;344507;28;82677;-96
2023/05/27 00:24:26;;;;;;;;;;;20.90;97.30;21.10;99801.00;;;;346598;28;83326;-96
2023/05/27 00:24:39;;;;;;;;;;;21.00;97.30;21.10;99804.00;;;;348019;28;82497;-96
2023/05/27 00:24:53;;;;;;;;;;;20.90;97.20;21.10;99802.00;;;;346443;28;82989;-96
2023/05/27 00:25:06;;;;;;;;;;;21.00;97.20;21.00;99804.00;;;;349282;27;82497;-96
2023/05/27 00:25:20;;;;;;;;;;;21.00;97.30;20.90;99805.00;;;;349493;27;84008;-96
2023/05/27 00:25:32;;;;;;;;;;;20.90;97.20;21.00;99802.00;;;;345827;28;82346;-96
2023/05/27 00:25:44;;;;;;;;;;;20.90;97.20;21.00;99794.00;;;;347936;28;83085;-96
2023/05/27 00:25:58;;;;;;;;;;;20.90;97.20;21.00;99798.00;;;;348318;28;82516;-96
2023/05/27 00:26:24;;;;;;;;;;;20.90;97.30;21.00;99805.00;;;;349364;27;82907;-95
2023/05/27 00:26:40;;;;;;;;;;;20.90;97.30;21.00;99794.00;;;;348180;28;82588;-95
2023/05/27 00:26:57;;;;;;;;;;;20.90;97.30;21.00;99798.00;;;;344995;28;82850;-96
2023/05/27 00:27:10;;;;;;;;;;;20.90;97.20;21.00;99806.00;;;;348235;28;82576;-96
2023/05/27 00:27:27;;;;;;;;;;;20.90;97.20;21.00;99805.00;;;;348239;28;83019;-96
2023/05/27 00:27:40;;;;;;;;;;;20.90;97.40;20.90;99803.00;;;;350789;27;82696;-96
2023/05/27 00:27:54;;;;;;;;;;;20.90;97.40;20.90;99808.00;;;;349414;27;84449;-96
2023/05/27 00:28:12;;;;;;;;;;;20.90;97.40;20.90;99803.00;;;;346959;28;82507;-96
2023/05/27 00:28:28;;;;;;;;;;;20.90;97.40;20.90;99794.00;;;;349578;27;83272;-96
2023/05/27 00:28:41;;;;;;;;;;;20.90;97.30;21.00;99796.00;;;;349290;27;82589;-96
2023/05/27 00:28:53;;;;;;;;;;;20.90;97.30;20.90;99794.00;;;;347919;28;85085;-96
2023/05/27 00:29:06;;;;;;;;;;;20.90;97.40;21.00;99798.00;;;;349198;27;82534;-96
2023/05/27 00:29:19;;;;;;;;;;;20.90;97.40;20.90;99799.00;;;;347857;28;86472;-95
2023/05/27 00:29:31;;;;;;;;;;;20.90;97.40;20.90;99799.00;;;;350659;27;82582;-96
2023/05/27 00:29:45;;;;;;;;;;;20.80;97.30;21.00;99794.00;;;;349461;27;83064;-96
2023/05/27 00:30:08;;;;;;;;;;;20.90;97.30;20.80;99796.00;;;;345405;28;82310;-95
2023/05/27 00:30:34;;;;;;;;;;;20.80;97.30;20.90;99798.00;;;;345545;28;83058;-96
2023/05/27 00:30:50;;;;;;;;;;;20.80;97.30;20.90;99795.00;;;;349494;27;82653;-94
2023/05/27 00:31:03;;;;;;;;;;;20.80;97.40;20.90;99800.00;;;;350052;27;84820;-94
2023/05/27 00:31:16;;;;;;;;;;;20.80;97.40;20.90;99794.00;;;;345329;28;82585;-95
2023/05/27 00:31:28;;;;;;;;;;;20.80;97.30;20.80;99807.00;;;;349529;27;84892;-94
2023/05/27 00:31:41;;;;;;;;;;;20.80;97.30;20.80;99795.00;;;;347201;28;82646;-95
2023/05/27 00:31:56;;;;;;;;;;;20.80;97.30;20.90;99792.00;;;;349837;27;84541;-95
2023/05/27 00:32:08;;;;;;;;;;;20.80;97.30;20.90;99797.00;;;;348180;28;82676;-94
2023/05/27 00:32:24;;;;;;;;;;;20.80;97.30;20.90;99802.00;;;;349673;27;83292;-95
2023/05/27 00:32:38;;;;;;;;;;;20.80;97.30;20.90;99791.00;;;;348556;28;82435;-94
2023/05/27 00:32:50;;;;;;;;;;;20.80;97.30;20.80;99792.00;;;;346943;28;85044;-95
2023/05/27 00:33:04;;;;;;;;;;;20.80;97.30;20.80;99787.00;;;;349778;27;82597;-95
2023/05/27 00:33:16;;;;;;;;;;;20.80;97.30;20.90;99793.00;;;;348412;28;84366;-96
2023/05/27 00:33:30;;;;;;;;;;;20.80;97.30;20.90;99790.00;;;;347333;28;82437;-95
2023/05/27 00:33:47;;;;;;;;;;;20.80;97.30;20.90;99794.00;;;;349703;27;84891;-96
2023/05/27 00:34:07;;;;;;;;;;;20.80;97.30;20.90;99799.00;;;;351440;27;82555;-93
2023/05/27 00:34:19;;;;;;;;;;;20.80;97.30;20.80;99791.00;;;;348348;28;84248;-96
2023/05/27 00:34:34;;;;;;;;;;;20.80;97.30;20.80;99796.00;;;;348420;28;82330;-94
2023/05/27 00:34:46;;;;;;;;;;;20.80;97.30;20.90;99792.00;;;;348285;28;84894;-94
2023/05/27 00:34:58;;;;;;;;;;;20.80;97.30;20.90;99791.00;;;;348206;28;82573;-94
2023/05/27 00:35:11;;;;;;;;;;;20.80;97.30;20.90;99790.00;;;;349893;27;85836;-93
2023/05/27 00:35:24;;;;;;;;;;;20.80;97.30;20.90;99801.00;;;;349919;27;82556;-96
2023/05/27 00:35:37;;;;;;;;;;;20.80;97.30;20.80;99793.00;;;;345843;28;84320;-94
2023/05/27 00:35:51;;;;;;;;;;;20.80;97.30;20.90;99799.00;;;;347412;28;82487;-94
2023/05/27 00:36:07;;;;;;;;;;;20.80;97.40;20.90;99790.00;;;;347170;28;83095;-96
2023/05/27 00:36:27;;;;;;;;;;;20.80;97.40;20.90;99787.00;;;;347126;28;82443;-93
2023/05/27 00:36:40;;;;;;;;;;;20.80;97.30;20.90;99792.00;;;;345595;28;82905;-94
2023/05/27 00:36:52;;;;;;;;;;;20.80;97.30;20.90;99795.00;;;;348485;28;82442;-94
2023/05/27 00:37:05;;;;;;;;;;;20.80;97.30;20.90;99792.00;;;;345764;28;82605;-96
2023/05/27 00:37:23;;;;;;;;;;;20.80;97.30;20.90;99796.00;;;;348374;27;82565;-95
2023/05/27 00:37:37;;;;;;;;;;;20.80;97.30;20.90;99791.00;;;;348321;28;86835;-94
2023/05/27 00:37:54;;;;;;;;;;;20.80;97.30;20.90;99794.00;;;;347347;28;82628;-95
2023/05/27 00:38:20;;;;;;;;;;;20.80;97.30;20.80;99790.00;;;;345616;28;83175;-94
2023/05/27 00:38:32;;;;;;;;;;;20.80;97.30;20.80;99795.00;;;;345740;28;82630;-94
2023/05/27 00:38:47;;;;;;;;;;;20.80;97.30;20.80;99801.00;;;;349636;27;84362;-94
2023/05/27 00:39:00;;;;;;;;;;;20.80;97.30;20.90;99792.00;;;;347000;28;82448;-93
2023/05/27 00:39:14;;;;;;;;;;;20.80;97.30;20.80;99799.00;;;;348153;28;83223;-95
2023/05/27 00:39:28;;;;;;;;;;;20.80;97.30;20.80;99794.00;;;;348526;28;82664;-94
2023/05/27 00:39:41;;;;;;;;;;;20.80;97.30;20.70;99800.00;;;;345608;28;83142;-93
2023/05/27 00:39:53;;;;;;;;;;;20.80;97.50;20.80;99795.00;;;;347216;28;82595;-95
2023/05/27 00:40:20;;;;;;;;;;;20.70;97.40;20.80;99793.00;;;;347972;28;82697;-95
2023/05/27 00:40:36;;;;;;;;;;;20.70;97.40;20.80;99795.00;;;;347149;28;82352;-94
2023/05/27 00:40:49;;;;;;;;;;;20.70;97.30;20.70;99794.00;;;;348174;28;85307;-95
2023/05/27 00:41:03;;;;;;;;;;;20.70;97.40;20.80;99793.00;;;;345654;28;82432;-94
2023/05/27 00:41:17;;;;;;;;;;;20.70;97.40;20.80;99789.00;;;;346904;28;83135;-94
2023/05/27 00:41:29;;;;;;;;;;;20.70;97.40;20.80;99786.00;;;;349767;27;82573;-94
2023/05/27 00:41:43;;;;;;;;;;;20.70;97.40;20.80;99797.00;;;;349462;27;83065;-95
2023/05/27 00:41:55;;;;;;;;;;;20.70;97.40;20.80;99791.00;;;;346782;28;82566;-94
2023/05/27 00:42:07;;;;;;;;;;;20.70;97.40;20.80;99795.00;;;;342579;28;85044;-94
2023/05/27 00:42:21;;;;;;;;;;;20.70;97.40;20.70;99791.00;;;;347100;28;82657;-95
2023/05/27 00:42:33;;;;;;;;;;;20.70;97.50;20.60;99789.00;;;;349634;27;83033;-95
2023/05/27 00:42:46;;;;;;;;;;;20.70;97.50;20.60;99796.00;;;;348583;28;82547;-94
2023/05/27 00:43:01;;;;;;;;;;;20.70;97.50;20.60;99788.00;;;;348480;28;82853;-95
2023/05/27 00:43:14;;;;;;;;;;;20.70;97.50;20.60;99787.00;;;;345194;28;82430;-95
2023/05/27 00:43:26;;;;;;;;;;;20.60;97.50;20.60;99796.00;;;;347089;28;85652;-95
2023/05/27 00:43:40;;;;;;;;;;;20.70;97.50;20.60;99783.00;;;;347392;28;82364;-94
2023/05/27 00:43:56;;;;;;;;;;;20.60;97.50;20.60;99788.00;;;;345444;28;82939;-94
2023/05/27 00:44:09;;;;;;;;;;;20.60;97.50;20.70;99781.00;;;;350051;27;82522;-94
2023/05/27 00:44:21;;;;;;;;;;;20.60;97.50;20.70;99789.00;;;;347143;28;84012;-95
2023/05/27 00:44:34;;;;;;;;;;;20.60;97.50;20.70;99790.00;;;;348273;28;82562;-95
2023/05/27 00:44:46;;;;;;;;;;;20.60;97.50;20.70;99797.00;;;;351144;27;83048;-95
2023/05/27 00:44:58;;;;;;;;;;;20.60;97.50;20.60;99781.00;;;;345707;28;82570;-95
2023/05/27 00:45:11;;;;;;;;;;;20.60;97.60;20.60;99792.00;;;;346825;28;85332;-95
2023/05/27 00:45:23;;;;;;;;;;;20.60;97.60;20.60;99783.00;;;;348386;28;82523;-94
2023/05/27 00:45:35;;;;;;;;;;;20.60;97.60;20.70;99789.00;;;;346844;28;84149;-95
2023/05/27 00:45:47;;;;;;;;;;;20.60;97.60;20.70;99788.00;;;;348532;27;82654;-94
2023/05/27 00:46:00;;;;;;;;;;;20.60;97.50;20.70;99783.00;;;;346765;28;85529;-95
2023/05/27 00:46:12;;;;;;;;;;;20.60;97.60;20.70;99784.00;;;;345917;28;82557;-96
2023/05/27 00:46:24;;;;;;;;;;;20.60;97.60;20.70;99791.00;;;;347032;28;83084;-95
2023/05/27 00:46:36;;;;;;;;;;;20.60;97.60;20.70;99795.00;;;;348425;28;82704;-95
2023/05/27 00:46:49;;;;;;;;;;;20.60;97.60;20.60;99784.00;;;;346739;28;83094;-95
2023/05/27 00:47:02;;;;;;;;;;;20.60;97.60;20.60;99783.00;;;;348211;28;82354;-94
2023/05/27 00:47:15;;;;;;;;;;;20.60;97.60;20.60;99788.00;;;;346963;28;84180;-95
2023/05/27 00:47:29;;;;;;;;;;;20.60;97.60;20.60;99782.00;;;;349750;27;83420;-95
2023/05/27 00:47:41;;;;;;;;;;;20.60;97.60;20.70;99788.00;;;;349969;27;82999;-95
2023/05/27 00:47:54;;;;;;;;;;;20.60;97.60;20.70;99786.00;;;;346933;28;82625;-94
2023/05/27 00:48:06;;;;;;;;;;;20.60;97.70;20.60;99778.00;;;;345751;28;85261;-95
2023/05/27 00:48:19;;;;;;;;;;;20.60;97.70;20.60;99786.00;;;;348278;28;82603;-95
2023/05/27 00:48:31;;;;;;;;;;;20.60;97.70;20.70;99791.00;;;;345433;28;84600;-94
2023/05/27 00:48:44;;;;;;;;;;;20.60;97.70;20.70;99789.00;;;;346833;28;82558;-95
2023/05/27 00:48:57;;;;;;;;;;;20.60;97.90;20.70;99789.00;;;;349911;27;82169;-95
2023/05/27 00:49:12;;;;;;;;;;;20.60;97.60;20.60;99783.00;;;;347122;27;82558;-96
2023/05/27 00:49:26;;;;;;;;;;;20.60;97.70;20.70;99779.00;;;;346911;28;83043;-94
2023/05/27 00:49:38;;;;;;;;;;;20.60;97.70;20.60;99788.00;;;;349775;27;82737;-94
2023/05/27 00:49:51;;;;;;;;;;;20.60;97.70;20.70;99783.00;;;;343965;28;84889;-94
2023/05/27 00:50:05;;;;;;;;;;;20.60;97.60;20.70;99783.00;;;;346761;28;82456;-95
2023/05/27 00:50:21;;;;;;;;;;;20.60;97.60;20.70;99793.00;;;;345742;28;83037;-96
2023/05/27 00:50:35;;;;;;;;;;;20.60;97.70;20.70;99796.00;;;;347272;28;82547;-96
2023/05/27 00:50:48;;;;;;;;;;;20.60;97.60;20.60;99790.00;;;;346973;28;83272;-95
2023/05/27 00:51:01;;;;;;;;;;;20.60;97.60;20.70;99785.00;;;;346133;28;82308;-94
2023/05/27 00:51:15;;;;;;;;;;;20.60;97.60;20.60;99785.00;;;;348137;28;82901;-96
2023/05/27 00:51:31;;;;;;;;;;;20.60;97.60;20.60;99784.00;;;;347036;28;82422;-95
2023/05/27 00:51:43;;;;;;;;;;;20.60;97.60;20.70;99786.00;;;;345498;28;83240;-96
2023/05/27 00:51:55;;;;;;;;;;;20.50;97.60;20.60;99779.00;;;;348494;28;82255;-95
2023/05/27 00:52:08;;;;;;;;;;;20.60;97.60;20.70;99784.00;;;;348264;28;85106;-95
2023/05/27 00:52:20;;;;;;;;;;;20.50;97.50;20.70;99790.00;;;;348213;28;82559;-95
2023/05/27 00:52:32;;;;;;;;;;;20.60;97.50;20.70;99788.00;;;;349184;27;85520;-94
2023/05/27 00:52:44;;;;;;;;;;;20.60;97.50;20.70;99789.00;;;;346782;28;82583;-95
2023/05/27 00:52:57;;;;;;;;;;;20.60;97.50;20.70;99788.00;;;;348212;28;85155;-96
2023/05/27 00:53:10;;;;;;;;;;;20.60;97.50;20.80;99788.00;;;;345633;28;82514;-94
2023/05/27 00:53:22;;;;;;;;;;;20.60;97.50;20.70;99788.00;;;;348163;28;83198;-94
2023/05/27 00:53:39;;;;;;;;;;;20.60;97.50;20.70;99787.00;;;;348494;28;82563;-95
2023/05/27 00:53:51;;;;;;;;;;;20.60;97.60;20.70;99784.00;;;;348151;28;82816;-95
2023/05/27 00:54:04;;;;;;;;;;;20.60;97.50;20.70;99793.00;;;;348254;28;82559;-95
2023/05/27 00:54:16;;;;;;;;;;;20.60;97.60;20.70;99788.00;;;;344348;28;85942;-96
2023/05/27 00:54:31;;;;;;;;;;;20.60;97.50;20.70;99787.00;;;;348607;28;82373;-95
2023/05/27 00:54:43;;;;;;;;;;;20.60;97.60;20.70;99784.00;;;;349406;27;85287;-94
2023/05/27 00:54:57;;;;;;;;;;;20.60;97.50;20.70;99781.00;;;;344187;28;82456;-95
2023/05/27 00:55:10;;;;;;;;;;;20.60;97.50;20.70;99791.00;;;;347159;28;82767;-96
2023/05/27 00:55:24;;;;;;;;;;;20.60;97.50;20.70;99788.00;;;;347156;28;82546;-95
2023/05/27 00:55:36;;;;;;;;;;;20.60;97.50;20.70;99790.00;;;;347021;28;84458;-95
2023/05/27 00:55:50;;;;;;;;;;;20.60;97.50;20.70;99784.00;;;;346732;28;82577;-96
2023/05/27 00:56:03;;;;;;;;;;;20.60;97.50;20.70;99784.00;;;;346831;28;84240;-96
2023/05/27 00:56:18;;;;;;;;;;;20.60;97.50;20.70;99779.00;;;;348025;28;82556;-96
2023/05/27 00:56:30;;;;;;;;;;;20.60;97.60;20.70;99779.00;;;;349550;27;83067;-95
2023/05/27 00:56:42;;;;;;;;;;;20.60;97.50;20.80;99789.00;;;;345453;28;82585;-95
2023/05/27 00:56:54;;;;;;;;;;;20.60;97.50;20.70;99783.00;;;;349516;27;84238;-96
2023/05/27 00:57:07;;;;;;;;;;;20.60;97.50;20.60;99780.00;;;;344225;28;82568;-95
2023/05/27 00:57:19;;;;;;;;;;;20.60;97.60;20.70;99778.00;;;;349682;27;83134;-95
2023/05/27 00:57:33;;;;;;;;;;;20.60;97.50;20.70;99783.00;;;;347041;28;82586;-95
2023/05/27 00:57:45;;;;;;;;;;;20.60;97.60;20.60;99776.00;;;;346906;28;86757;-95
2023/05/27 00:57:57;;;;;;;;;;;20.60;97.50;20.60;99783.00;;;;347188;28;82639;-95
2023/05/27 00:58:10;;;;;;;;;;;20.60;97.60;20.50;99778.00;;;;346583;28;83242;-95
2023/05/27 00:58:23;;;;;;;;;;;20.50;97.50;20.50;99787.00;;;;345289;28;82573;-94
2023/05/27 00:58:36;;;;;;;;;;;20.50;97.50;20.60;99779.00;;;;345303;28;85585;-96
2023/05/27 00:58:48;;;;;;;;;;;20.50;97.50;20.60;99774.00;;;;345633;28;82426;-95
2023/05/27 00:59:01;;;;;;;;;;;20.50;97.50;20.50;99770.00;;;;346502;28;83028;-95
2023/05/27 00:59:13;;;;;;;;;;;20.50;97.60;20.60;99778.00;;;;348461;28;82556;-94
2023/05/27 00:59:27;;;;;;;;;;;20.50;97.60;20.70;99783.00;;;;346641;28;85044;-95
2023/05/27 00:59:39;;;;;;;;;;;20.50;97.60;20.70;99779.00;;;;348039;28;82573;-95
2023/05/27 00:59:52;;;;;;;;;;;20.50;97.60;20.60;99781.00;;;;350667;27;85003;-95
2023/05/27 01:00:09;;;;;;;;;;;20.50;97.60;20.70;99781.00;;;;345397;28;82593;-94
2023/05/27 01:00:22;;;;;;;;;;;20.50;97.70;20.70;99786.00;;;;348024;28;82978;-96
2023/05/27 01:00:39;;;;;;;;;;;20.50;97.70;20.60;99774.00;;;;346831;28;82524;-95
2023/05/27 01:00:51;;;;;;;;;;;20.50;97.60;20.70;99771.00;;;;346875;28;85677;-94
2023/05/27 01:01:05;;;;;;;;;;;20.50;97.60;20.70;99777.00;;;;347043;28;82625;-95
2023/05/27 01:01:19;;;;;;;;;;;20.50;97.60;20.60;99772.00;;;;349716;27;83276;-94
2023/05/27 01:01:33;;;;;;;;;;;20.50;97.60;20.60;99777.00;;;;348419;28;82638;-94
2023/05/27 01:01:49;;;;;;;;;;;20.50;97.50;20.60;99769.00;;;;344455;28;83872;-95
2023/05/27 01:02:01;;;;;;;;;;;20.50;97.60;20.70;99779.00;;;;347224;28;82360;-95
2023/05/27 01:02:15;;;;;;;;;;;20.50;97.60;20.60;99775.00;;;;348465;28;83327;-96
2023/05/27 01:02:29;;;;;;;;;;;20.50;97.60;20.50;99772.00;;;;348422;28;82533;-95
2023/05/27 01:02:45;;;;;;;;;;;20.50;97.60;20.50;99773.00;;;;349844;27;83277;-95
2023/05/27 01:02:59;;;;;;;;;;;20.50;97.60;20.60;99781.00;;;;347090;28;82542;-95
2023/05/27 01:03:13;;;;;;;;;;;20.50;97.60;20.60;99772.00;;;;348384;28;83281;-95
2023/05/27 01:03:29;;;;;;;;;;;20.50;97.70;20.70;99775.00;;;;348337;28;82563;-95
2023/05/27 01:03:44;;;;;;;;;;;20.50;97.70;20.60;99775.00;;;;346720;28;83269;-96
2023/05/27 01:03:56;;;;;;;;;;;20.50;97.70;20.60;99772.00;;;;347993;28;82512;-95
2023/05/27 01:04:12;;;;;;;;;;;20.40;97.70;20.50;99767.00;;;;348178;27;83054;-94
2023/05/27 01:04:25;;;;;;;;;;;20.40;97.70;20.50;99781.00;;;;348498;28;82656;-95
2023/05/27 01:04:37;;;;;;;;;;;20.50;97.70;20.50;99774.00;;;;346583;28;85056;-95
2023/05/27 01:04:50;;;;;;;;;;;20.50;97.70;20.50;99775.00;;;;347350;28;82570;-95
2023/05/27 01:05:02;;;;;;;;;;;20.50;97.70;20.40;99774.00;;;;348199;28;83178;-94
2023/05/27 01:05:16;;;;;;;;;;;20.50;97.70;20.50;99777.00;;;;344604;28;82102;-95
2023/05/27 01:05:29;;;;;;;;;;;20.40;97.70;20.50;99776.00;;;;348239;28;83479;-94
2023/05/27 01:05:42;;;;;;;;;;;20.50;97.70;20.50;99783.00;;;;345792;28;82472;-94
2023/05/27 01:06:00;;;;;;;;;;;20.40;97.70;20.50;99772.00;;;;346630;28;83274;-94
2023/05/27 01:06:44;;;;;;;;;;;20.40;97.70;20.50;99771.00;;;;345727;28;82629;-93
2023/05/27 01:06:59;;;;;;;;;;;20.40;97.70;20.60;99779.00;;;;349745;27;85019;-95
2023/05/27 01:07:23;;;;;;;;;;;20.40;97.70;20.60;99775.00;;;;349624;27;82569;-94
2023/05/27 01:07:52;;;;;;;;;;;20.40;97.70;20.60;99778.00;;;;349788;27;83143;-95
2023/05/27 01:08:26;;;;;;;;;;;20.50;97.60;20.60;99782.00;;;;348796;28;82346;-95
2023/05/27 01:09:05;;;;;;;;;;;20.50;97.60;20.60;99774.00;;;;345497;28;83485;-94
2023/05/27 01:09:58;;;;;;;;;;;20.50;97.70;20.60;99775.00;;;;346149;28;82656;-96
2023/05/27 01:10:21;;;;;;;;;;;20.50;97.60;20.60;99765.00;;;;345436;28;83019;-95
2023/05/27 01:10:55;;;;;;;;;;;20.50;97.60;20.50;99776.00;;;;344112;28;83732;-95
2023/05/27 01:11:09;;;;;;;;;;;20.50;97.60;20.50;99772.00;;;;337077;28;84292;-96
2023/05/27 01:11:26;;;;;;;;;;;20.50;97.60;20.50;99771.00;;;;342363;28;82534;-96
2023/05/27 01:11:42;;;;;;;;;;;20.50;97.80;20.50;99768.00;;;;342475;28;83456;-96
2023/05/27 01:12:34;;;;;;;;;;;20.40;97.60;20.50;99779.00;;;;346727;28;82396;-95
2023/05/27 01:13:17;;;;;;;;;;;20.40;97.60;20.50;99774.00;;;;344781;28;83298;-95
2023/05/27 01:13:35;;;;;;;;;;;20.40;97.60;20.50;99777.00;;;;346100;28;82770;-96
2023/05/27 01:13:52;;;;;;;;;;;20.40;97.60;20.50;99768.00;;;;340815;28;83328;-96
2023/05/27 01:14:09;;;;;;;;;;;20.40;97.60;20.50;99772.00;;;;343618;28;82577;-96
2023/05/27 01:14:22;;;;;;;;;;;20.40;97.70;20.50;99771.00;;;;342160;28;85075;-96
2023/05/27 01:14:35;;;;;;;;;;;20.40;97.70;20.40;99776.00;;;;340427;28;82568;-96
2023/05/27 01:14:47;;;;;;;;;;;20.40;97.70;20.40;99772.00;;;;345708;28;83052;-95
2023/05/27 01:14:59;;;;;;;;;;;20.40;97.70;20.50;99775.00;;;;343858;28;82367;-96
2023/05/27 01:15:11;;;;;;;;;;;20.40;97.70;20.50;99775.00;;;;343081;28;85519;-95
2023/05/27 01:15:24;;;;;;;;;;;20.40;97.70;20.50;99774.00;;;;343549;28;82563;-96
2023/05/27 01:15:38;;;;;;;;;;;20.40;97.70;20.50;99766.00;;;;343371;28;84365;-96
2023/05/27 01:15:52;;;;;;;;;;;20.40;97.70;20.40;99772.00;;;;344954;28;82543;-96
2023/05/27 01:16:09;;;;;;;;;;;20.40;97.60;20.40;99768.00;;;;344800;28;82704;-96